BAV145 VVDN-VVCR
Flight info
| Callsign | BAV145 |
|---|---|
| Flight time | N/A |
| Altitude | 34000 |
| Route | KUMUN1G KUMUN W2 KAMGO DCT SIMME COTUN2A |
| Aircraft | B789/H-SDE1E2E3FGHIJ2J3J4J5M1RWXY/LB1D1 |
Departure
| Time | N/A |
|---|---|
| Airport | Da Nang International Airport (VVDN) |
Arrival
| Time | 2026-05-01 07:42 |
|---|---|
| Airport | Cam Ranh International Airport / Cam Ranh Air Base (VVCR) |
| Time | Latitude | Longitude | Altitude | Speed | Heading |
|---|---|---|---|---|---|
| 2026-05-01 07:23 | 12.86164 | 109.23220 | 20713 ft | 431 kts | 163° |
| 2026-05-01 07:23 | 12.80493 | 109.24958 | 19805 ft | 417 kts | 162° |
| 2026-05-01 07:24 | 12.77739 | 109.25803 | 19388 ft | 409 kts | 162° |
| 2026-05-01 07:24 | 12.75027 | 109.26634 | 18971 ft | 404 kts | 162° |
| 2026-05-01 07:24 | 12.72348 | 109.27454 | 18563 ft | 400 kts | 162° |
| 2026-05-01 07:24 | 12.69686 | 109.28269 | 18163 ft | 396 kts | 162° |
| 2026-05-01 07:25 | 12.67065 | 109.29036 | 17682 ft | 388 kts | 167° |
| 2026-05-01 07:25 | 12.64442 | 109.29323 | 17225 ft | 381 kts | 173° |
| 2026-05-01 07:25 | 12.61830 | 109.29589 | 16748 ft | 374 kts | 172° |
| 2026-05-01 07:25 | 12.59266 | 109.29862 | 16282 ft | 368 kts | 172° |
| 2026-05-01 07:26 | 12.56738 | 109.30106 | 15836 ft | 362 kts | 173° |
| 2026-05-01 07:26 | 12.54242 | 109.30338 | 15406 ft | 358 kts | 173° |
| 2026-05-01 07:26 | 12.52603 | 109.30495 | 15124 ft | 357 kts | 172° |
| 2026-05-01 07:26 | 12.50141 | 109.30739 | 14710 ft | 354 kts | 172° |
| 2026-05-01 07:27 | 12.47691 | 109.30980 | 14266 ft | 353 kts | 172° |
| 2026-05-01 07:27 | 12.45252 | 109.31215 | 13839 ft | 351 kts | 172° |
| 2026-05-01 07:27 | 12.42048 | 109.31525 | 13200 ft | 348 kts | 172° |
| 2026-05-01 07:27 | 12.40420 | 109.31684 | 12841 ft | 347 kts | 172° |
| 2026-05-01 07:28 | 12.38025 | 109.31916 | 12316 ft | 344 kts | 172° |
| 2026-05-01 07:28 | 12.35667 | 109.32144 | 12010 ft | 336 kts | 172° |
| 2026-05-01 07:28 | 12.33626 | 109.32405 | 11806 ft | 336 kts | 165° |
| 2026-05-01 07:28 | 12.31374 | 109.32923 | 11517 ft | 334 kts | 166° |
| 2026-05-01 07:29 | 12.29126 | 109.33360 | 11235 ft | 323 kts | 167° |
| 2026-05-01 07:29 | 12.26953 | 109.33794 | 10952 ft | 314 kts | 166° |
| 2026-05-01 07:29 | 12.24843 | 109.34245 | 10679 ft | 306 kts | 166° |
| 2026-05-01 07:29 | 12.22791 | 109.34683 | 10408 ft | 297 kts | 166° |
| 2026-05-01 07:30 | 12.20794 | 109.35100 | 10137 ft | 288 kts | 166° |
| 2026-05-01 07:30 | 12.18841 | 109.35507 | 9864 ft | 285 kts | 166° |
| 2026-05-01 07:30 | 12.16906 | 109.35913 | 9517 ft | 283 kts | 166° |
| 2026-05-01 07:30 | 12.14980 | 109.36316 | 9169 ft | 281 kts | 166° |
| 2026-05-01 07:31 | 12.13065 | 109.36718 | 8843 ft | 281 kts | 166° |
| 2026-05-01 07:31 | 12.07362 | 109.37911 | 8046 ft | 278 kts | 166° |
| 2026-05-01 07:32 | 12.03713 | 109.38087 | 7641 ft | 265 kts | 196° |
| 2026-05-01 07:32 | 12.01987 | 109.37468 | 7392 ft | 262 kts | 198° |
| 2026-05-01 07:33 | 11.98609 | 109.36201 | 6897 ft | 258 kts | 198° |
| 2026-05-01 07:33 | 11.96922 | 109.35583 | 6658 ft | 256 kts | 198° |
| 2026-05-01 07:33 | 11.93665 | 109.34387 | 6143 ft | 246 kts | 198° |
| 2026-05-01 07:34 | 11.92066 | 109.33798 | 5758 ft | 243 kts | 198° |
| 2026-05-01 07:34 | 11.88886 | 109.32628 | 4974 ft | 240 kts | 198° |
| 2026-05-01 07:34 | 11.87318 | 109.32053 | 4614 ft | 237 kts | 198° |
| 2026-05-01 07:35 | 11.85805 | 109.31495 | 4497 ft | 226 kts | 199° |
| 2026-05-01 07:35 | 11.84314 | 109.30946 | 4494 ft | 234 kts | 198° |
| 2026-05-01 07:35 | 11.82771 | 109.30383 | 4317 ft | 235 kts | 199° |
| 2026-05-01 07:35 | 11.81245 | 109.29805 | 4127 ft | 234 kts | 201° |
| 2026-05-01 07:36 | 11.79995 | 109.28768 | 3865 ft | 235 kts | 236° |
| 2026-05-01 07:36 | 11.79504 | 109.27232 | 3621 ft | 223 kts | 271° |
| 2026-05-01 07:36 | 11.79829 | 109.25756 | 3359 ft | 209 kts | 300° |
| 2026-05-01 07:36 | 11.80462 | 109.24440 | 3132 ft | 199 kts | 302° |
| 2026-05-01 07:37 | 11.81658 | 109.21970 | 2697 ft | 194 kts | 303° |
| 2026-05-01 07:37 | 11.82243 | 109.20742 | 2482 ft | 189 kts | 302° |
| 2026-05-01 07:37 | 11.82815 | 109.19545 | 2496 ft | 194 kts | 302° |
| 2026-05-01 07:38 | 11.83420 | 109.18297 | 2500 ft | 194 kts | 304° |
| 2026-05-01 07:38 | 11.84343 | 109.17361 | 2475 ft | 185 kts | 336° |
| 2026-05-01 07:38 | 11.86669 | 109.17363 | 2340 ft | 168 kts | 22° |
| 2026-05-01 07:39 | 11.87777 | 109.17756 | 2198 ft | 166 kts | 20° |
| 2026-05-01 07:39 | 11.88841 | 109.18122 | 2194 ft | 160 kts | 21° |
| 2026-05-01 07:39 | 11.90972 | 109.18863 | 1819 ft | 161 kts | 21° |
| 2026-05-01 07:40 | 11.92044 | 109.19235 | 1570 ft | 163 kts | 21° |
| 2026-05-01 07:40 | 11.93116 | 109.19607 | 1326 ft | 162 kts | 21° |
| 2026-05-01 07:40 | 11.94136 | 109.19963 | 1073 ft | 146 kts | 20° |
| 2026-05-01 07:40 | 11.95085 | 109.20294 | 853 ft | 144 kts | 19° |
| 2026-05-01 07:41 | 11.96027 | 109.20609 | 645 ft | 140 kts | 20° |
| 2026-05-01 07:41 | 11.96948 | 109.20937 | 430 ft | 146 kts | 23° |
| 2026-05-01 07:41 | 11.98737 | 109.21553 | 60 ft | 122 kts | 21° |
| 2026-05-01 07:42 | 11.99358 | 109.21774 | 51 ft | 62 kts | 19° |
| 2026-05-01 07:42 | 11.99592 | 109.21855 | 53 ft | 16 kts | 19° |
| 2026-05-01 07:42 | 11.99630 | 109.21868 | 53 ft | 4 kts | 19° |
| 2026-05-01 07:42 | 11.99681 | 109.21886 | 56 ft | 10 kts | 19° |
| 2026-05-01 07:43 | 11.99743 | 109.21907 | 57 ft | 9 kts | 18° |
| 2026-05-01 07:43 | 11.99819 | 109.21934 | 53 ft | 15 kts | 19° |
| 2026-05-01 07:43 | 11.99993 | 109.21973 | 52 ft | 7 kts | 321° |
| 2026-05-01 07:44 | 12.00032 | 109.21882 | 55 ft | 9 kts | 290° |
| 2026-05-01 07:44 | 12.00079 | 109.21741 | 52 ft | 12 kts | 289° |
| 2026-05-01 07:45 | 12.00109 | 109.21657 | 56 ft | 13 kts | 290° |
| 2026-05-01 07:45 | 12.00131 | 109.21636 | 54 ft | 2 kts | 345° |
| 2026-05-01 07:45 | 12.00144 | 109.21636 | 54 ft | 3 kts | 6° |
| 2026-05-01 07:45 | 12.00164 | 109.21643 | 58 ft | 3 kts | 20° |
| 2026-05-01 07:46 | 12.00188 | 109.21651 | 56 ft | 4 kts | 19° |
| 2026-05-01 07:46 | 12.00215 | 109.21661 | 54 ft | 4 kts | 19° |
| 2026-05-01 07:46 | 12.00287 | 109.21687 | 58 ft | 7 kts | 19° |
| 2026-05-01 07:47 | 12.00335 | 109.21703 | 51 ft | 8 kts | 18° |
| 2026-05-01 07:47 | 12.00391 | 109.21723 | 53 ft | 9 kts | 19° |
| 2026-05-01 07:47 | 12.00453 | 109.21744 | 54 ft | 10 kts | 20° |
| 2026-05-01 07:47 | 12.00516 | 109.21766 | 55 ft | 10 kts | 18° |
| 2026-05-01 07:48 | 12.00623 | 109.21799 | 54 ft | 3 kts | 353° |
| 2026-05-01 07:48 | 12.00633 | 109.21791 | 50 ft | 2 kts | 310° |
| 2026-05-01 07:48 | 12.00636 | 109.21781 | 54 ft | 2 kts | 282° |
| 2026-05-01 07:49 | 12.00641 | 109.21757 | 55 ft | 5 kts | 285° |
| 2026-05-01 07:49 | 12.00666 | 109.21680 | 54 ft | 4 kts | 289° |
| 2026-05-01 07:49 | 12.00670 | 109.21666 | 53 ft | 1 kts | 288° |
| 2026-05-01 07:50 | 12.00671 | 109.21665 | 51 ft | 0 kts | 288° |
| 2026-05-01 07:50 | 12.00671 | 109.21663 | 52 ft | 0 kts | 288° |